Time;durP1;ratioP1;P1;durP2;ratioP2;P2;SDS_P1;SDS_P2;PMS_P1;PMS_P2;Temp;Humidity;BMP_temperature;BMP_pressure;BME280_temperature;BME280_humidity;BME280_pressure;Samples;Min_cycle;Max_cycle;Signal;HPM_P1;HPM_P2
2022/12/25 00:03:18;;;;;;;269.77;34.78;;;;;;;2.31;100.00;101418.59;10548242;27;20040;-79
2022/12/25 00:08:18;;;;;;;163.35;31.23;;;;;;;2.31;100.00;101396.88;10567966;27;20040;-79
2022/12/25 00:13:19;;;;;;;162.90;33.80;;;;;;;2.33;100.00;101408.41;10550245;27;20074;-78
2022/12/25 00:18:19;;;;;;;155.65;33.10;;;;;;;2.38;100.00;101404.09;10549243;28;20035;-77
2022/12/25 00:23:20;;;;;;;255.70;35.63;;;;;;;2.37;100.00;101409.72;10549270;27;20117;-79
2022/12/25 00:28:20;;;;;;;135.57;33.17;;;;;;;2.32;100.00;101385.00;10563515;28;20028;-76
2022/12/25 00:33:21;;;;;;;145.73;36.63;;;;;;;2.30;100.00;101354.44;10550474;27;20035;-76
2022/12/25 00:38:22;;;;;;;194.60;37.80;;;;;;;2.37;100.00;101366.22;10567573;27;20050;-79
2022/12/25 00:43:22;;;;;;;98.95;36.42;;;;;;;2.39;100.00;101366.88;10566770;27;20040;-79
2022/12/25 00:48:23;;;;;;;121.50;35.80;;;;;;;2.48;100.00;101373.94;10549795;27;20047;-78
2022/12/25 00:53:24;;;;;;;199.60;39.42;;;;;;;2.67;100.00;101387.94;10559802;27;20036;-79
2022/12/25 00:58:25;;;;;;;106.03;36.60;;;;;;;2.64;100.00;101383.72;10507527;28;20050;-79
2022/12/25 01:03:25;;;;;;;171.75;40.63;;;;;;;2.64;100.00;101372.84;10524239;28;20040;-78
2022/12/25 01:08:27;;;;;;;121.17;39.63;;;;;;;2.62;100.00;101378.50;10522511;28;20078;-76
2022/12/25 01:13:27;;;;;;;111.57;37.20;;;;;;;2.54;100.00;101388.63;10507415;28;20104;-79
2022/12/25 01:18:28;;;;;;;126.45;37.85;;;;;;;2.54;100.00;101400.34;10507055;28;20044;-79
2022/12/25 01:23:28;;;;;;;164.35;37.75;;;;;;;2.47;100.00;101393.13;10506548;28;20043;-77
2022/12/25 01:28:29;;;;;;;161.40;41.33;;;;;;;2.33;100.00;101376.63;10506539;28;20032;-76
2022/12/25 01:33:29;;;;;;;94.97;34.93;;;;;;;2.36;100.00;101389.03;10519682;28;20128;-78
2022/12/25 01:38:30;;;;;;;128.03;40.70;;;;;;;2.39;100.00;101404.94;10522933;28;20123;-78
2022/12/25 01:43:31;;;;;;;108.73;39.20;;;;;;;2.36;100.00;101419.75;10524068;27;20039;-78
2022/12/25 01:48:33;;;;;;;123.88;36.38;;;;;;;2.39;100.00;101424.78;10565070;27;20047;-78
2022/12/25 01:53:33;;;;;;;135.18;37.22;;;;;;;2.31;100.00;101424.03;10547513;27;20039;-79
2022/12/25 01:58:34;;;;;;;125.27;35.87;;;;;;;2.31;100.00;101426.75;10530804;27;20035;-78
2022/12/25 02:03:34;;;;;;;112.70;36.20;;;;;;;2.25;100.00;101411.19;10535118;27;20040;-79
2022/12/25 02:08:35;;;;;;;81.38;34.45;;;;;;;2.33;100.00;101419.25;10520888;28;20454;-78
2022/12/25 02:13:35;;;;;;;101.88;36.03;;;;;;;2.38;100.00;101428.56;10571072;27;20046;-79
2022/12/25 02:18:45;;;;;;;188.57;37.63;;;;;;;2.52;100.00;101421.44;10563190;27;20039;-78
2022/12/25 02:24:14;;;;;;;96.95;35.88;;;;;;;2.78;100.00;101418.22;10563979;28;20036;-79
2022/12/25 02:29:24;;;;;;;109.22;38.20;;;;;;;2.95;100.00;101397.06;10580481;27;20124;-79
2022/12/25 02:34:29;;;;;;;125.33;40.13;;;;;;;3.21;100.00;101407.44;10563112;28;20036;-78
2022/12/25 03:11:39;;;;;;;131.35;42.38;;;;;;;4.22;100.00;101392.81;10549466;28;20046;-78
2022/12/25 03:16:49;;;;;;;116.78;39.60;;;;;;;4.46;100.00;101402.38;10520452;28;20058;-79
2022/12/25 03:27:09;;;;;;;114.47;39.30;;;;;;;4.76;100.00;101383.03;10523143;28;20044;-78
2022/12/25 03:32:30;;;;;;;116.88;41.38;;;;;;;4.85;100.00;101370.88;10549188;27;20039;-79
2022/12/25 04:37:08;;;;;;;122.50;41.95;;;;;;;5.49;100.00;101300.47;10586297;27;20055;-78
2022/12/25 04:42:09;;;;;;;151.77;43.70;;;;;;;5.25;100.00;101224.44;10550187;27;20031;-76
2022/12/25 04:47:09;;;;;;;112.22;39.00;;;;;;;5.70;100.00;101297.50;10525206;28;20040;-79
2022/12/25 04:52:10;;;;;;;107.82;40.70;;;;;;;5.75;100.00;101321.47;10541994;28;20060;-79
2022/12/25 04:57:10;;;;;;;112.05;40.28;;;;;;;5.85;100.00;101328.19;10540441;28;20039;-78
2022/12/25 05:02:11;;;;;;;116.65;39.55;;;;;;;5.93;100.00;101318.06;10524925;28;20024;-79
2022/12/25 05:07:11;;;;;;;117.05;41.85;;;;;;;5.58;100.00;101255.47;10527283;28;20040;-78
2022/12/25 05:12:12;;;;;;;128.35;44.33;;;;;;;5.98;100.00;101315.59;10551664;27;20040;-78
2022/12/25 05:17:13;;;;;;;123.75;44.58;;;;;;;6.05;100.00;101319.97;10549784;27;20047;-80
2022/12/25 05:22:13;;;;;;;148.32;45.63;;;;;;;6.16;100.00;101334.88;10549566;27;20028;-76
2022/12/25 05:27:15;;;;;;;144.43;49.85;;;;;;;6.21;100.00;101331.50;10565927;27;20118;-77
2022/12/25 05:32:15;;;;;;;136.70;47.75;;;;;;;6.26;100.00;101334.44;10581697;27;20039;-76
2022/12/25 05:37:16;;;;;;;131.48;48.33;;;;;;;6.29;100.00;101327.72;10583938;27;20047;-79
2022/12/25 05:42:16;;;;;;;153.27;47.00;;;;;;;6.26;100.00;101318.88;10548186;28;20039;-79
2022/12/25 05:47:17;;;;;;;142.68;47.38;;;;;;;6.34;100.00;101327.91;10578012;28;20047;-79
2022/12/25 05:52:17;;;;;;;160.40;48.92;;;;;;;6.18;100.00;101305.44;10547950;27;20051;-79
2022/12/25 05:57:18;;;;;;;153.00;51.50;;;;;;;6.51;100.00;101320.91;10564371;27;20087;-79
2022/12/25 06:02:18;;;;;;;161.70;49.15;;;;;;;6.54;100.00;101311.41;10560980;28;20114;-78
2022/12/25 06:07:19;;;;;;;154.18;51.10;;;;;;;6.65;100.00;101318.94;10520909;28;20101;-78
2022/12/25 06:12:19;;;;;;;142.50;47.92;;;;;;;6.67;100.00;101314.91;10550019;27;20035;-78
2022/12/25 06:17:21;;;;;;;185.18;51.25;;;;;;;6.76;100.00;101306.44;10582298;28;20514;-78
2022/12/25 06:22:22;;;;;;;158.40;49.90;;;;;;;6.70;100.00;101286.31;10581102;27;20099;-78
2022/12/25 06:27:23;;;;;;;167.65;49.72;;;;;;;6.72;100.00;101289.66;10563465;28;20042;-77
2022/12/25 06:32:23;;;;;;;167.55;51.22;;;;;;;6.74;100.00;101297.63;10562726;28;20059;-77
2022/12/25 06:37:23;;;;;;;163.25;48.90;;;;;;;6.65;100.00;101272.41;10546710;27;20057;-78
2022/12/25 06:42:24;;;;;;;177.90;51.38;;;;;;;6.75;100.00;101288.38;10563557;28;20031;-77
2022/12/25 06:47:24;;;;;;;168.82;51.08;;;;;;;6.78;100.00;101293.41;10562833;27;20054;-77
2022/12/25 06:52:25;;;;;;;165.00;50.95;;;;;;;6.83;100.00;101294.41;10563042;27;20038;-78
2022/12/25 06:57:25;;;;;;;161.00;49.45;;;;;;;6.71;100.00;101260.59;10546442;27;20032;-77
2022/12/25 07:02:26;;;;;;;178.45;52.20;;;;;;;6.92;100.00;101277.75;10529268;27;20122;-77
2022/12/25 07:07:26;;;;;;;157.10;49.50;;;;;;;6.87;100.00;101265.56;10540252;28;20036;-77
2022/12/25 07:12:27;;;;;;;159.80;48.35;;;;;;;6.94;100.00;101262.78;10545287;28;20056;-78
2022/12/25 07:17:27;;;;;;;149.85;48.05;;;;;;;6.91;100.00;101263.22;10511952;28;20036;-78
2022/12/25 07:22:28;;;;;;;141.45;48.25;;;;;;;6.97;100.00;101264.25;10545721;28;20035;-77
2022/12/25 07:27:29;;;;;;;158.73;50.38;;;;;;;7.00;100.00;101261.88;10528342;28;20032;-77
2022/12/25 07:32:30;;;;;;;139.40;46.72;;;;;;;6.97;100.00;101259.59;10510894;28;20040;-72
2022/12/25 07:37:31;;;;;;;156.45;49.28;;;;;;;7.04;100.00;101249.44;10528460;28;22315;-77
2022/12/25 07:42:31;;;;;;;138.55;46.67;;;;;;;7.01;100.00;101252.63;10547312;28;20028;-77
2022/12/25 07:47:32;;;;;;;155.95;50.92;;;;;;;7.06;100.00;101268.38;10552433;28;20036;-77
2022/12/25 07:52:32;;;;;;;179.13;53.40;;;;;;;7.06;100.00;101269.22;10510512;28;20062;-77
2022/12/25 07:57:34;;;;;;;146.00;51.45;;;;;;;7.12;100.00;101277.63;10529184;28;20028;-76
2022/12/25 08:02:35;;;;;;;141.68;50.75;;;;;;;7.12;100.00;101277.63;10523726;28;20040;-80
2022/12/25 08:07:36;;;;;;;121.40;48.63;;;;;;;7.10;100.00;101286.03;10549891;27;20496;-78
2022/12/25 08:12:36;;;;;;;140.50;50.25;;;;;;;7.15;100.00;101301.81;10520051;28;20105;-78
2022/12/25 08:17:37;;;;;;;146.57;52.28;;;;;;;7.19;100.00;101314.00;10542007;28;20495;-78
2022/12/25 08:22:37;;;;;;;142.25;52.55;;;;;;;7.19;100.00;101305.78;10525920;28;20032;-78
2022/12/25 08:27:37;;;;;;;143.77;50.15;;;;;;;6.80;100.00;101231.06;10559541;28;20154;-78
2022/12/25 08:32:38;;;;;;;126.47;49.30;;;;;;;7.25;100.00;101293.94;10538381;28;20060;-78
2022/12/25 08:37:38;;;;;;;137.05;49.35;;;;;;;7.27;100.00;101303.59;10584954;27;20031;-78
2022/12/25 08:42:39;;;;;;;122.35;51.85;;;;;;;7.22;100.00;101299.88;10584843;27;20507;-78
2022/12/25 08:47:39;;;;;;;133.70;51.97;;;;;;;7.33;100.00;101310.09;10529155;28;20032;-75
2022/12/25 08:52:40;;;;;;;133.73;53.47;;;;;;;7.35;100.00;101307.97;10525507;28;20424;-78
2022/12/25 08:57:41;;;;;;;116.93;47.47;;;;;;;7.33;100.00;101299.16;10525062;28;20044;-78
2022/12/25 09:02:41;;;;;;;127.45;51.00;;;;;;;7.38;100.00;101315.78;10490519;28;20044;-78
2022/12/25 09:07:42;;;;;;;130.80;50.28;;;;;;;7.38;100.00;101313.03;10524005;28;20040;-79
2022/12/25 09:12:42;;;;;;;116.25;49.25;;;;;;;7.40;100.00;101312.78;10541575;28;20032;-79
2022/12/25 09:17:43;;;;;;;115.78;47.03;;;;;;;7.39;100.00;101320.16;10517261;28;20067;-77
2022/12/25 09:22:43;;;;;;;111.00;48.78;;;;;;;7.38;100.00;101301.22;10540825;28;20040;-78
2022/12/25 09:27:44;;;;;;;112.60;47.15;;;;;;;7.35;100.00;101302.50;10523429;28;20028;-78
2022/12/25 09:32:44;;;;;;;122.55;46.10;;;;;;;7.34;100.00;101289.03;10523200;28;20042;-77
2022/12/25 09:37:45;;;;;;;93.13;47.20;;;;;;;7.35;100.00;101283.31;10521991;28;20131;-72
2022/12/25 09:42:45;;;;;;;96.85;46.38;;;;;;;7.23;100.00;101274.16;10540490;28;20047;-78
2022/12/25 09:47:46;;;;;;;108.57;46.35;;;;;;;7.24;100.00;101271.19;10515775;28;20032;-78
2022/12/25 09:53:06;;;;;;;107.18;44.92;;;;;;;7.23;100.00;101268.69;10521944;28;20040;-79
2022/12/25 09:58:11;;;;;;;96.35;44.33;;;;;;;7.30;100.00;101279.56;10522660;28;20032;-77
2022/12/25 10:03:26;;;;;;;100.82;46.20;;;;;;;7.32;100.00;101288.41;10540684;28;20400;-78
2022/12/25 10:08:46;;;;;;;98.93;44.60;;;;;;;7.32;100.00;101286.53;10572654;28;20403;-78
2022/12/25 10:14:01;;;;;;;90.57;41.60;;;;;;;7.33;100.00;101274.50;10558707;27;20051;-77
2022/12/25 10:19:04;;;;;;;85.65;42.58;;;;;;;7.42;100.00;101270.44;10520538;28;20458;-78
2022/12/25 10:24:29;;;;;;;94.82;43.15;;;;;;;7.51;100.00;101270.97;10537999;28;20040;-78
2022/12/25 10:29:30;;;;;;;94.63;42.50;;;;;;;7.49;100.00;101242.97;10530251;28;20054;-78
2022/12/25 10:34:31;;;;;;;88.97;40.55;;;;;;;7.53;100.00;101249.69;10524071;27;20035;-79
2022/12/25 10:39:32;;;;;;;98.20;43.83;;;;;;;7.58;100.00;101265.44;10545629;28;20416;-79
2022/12/25 10:44:33;;;;;;;90.20;40.38;;;;;;;7.62;100.00;101250.22;10543901;28;20078;-78
2022/12/25 10:49:37;;;;;;;79.25;39.97;;;;;;;7.64;100.00;101259.06;10557934;28;20040;-77
2022/12/25 10:54:38;;;;;;;72.05;38.00;;;;;;;7.53;100.00;101251.59;10558134;28;20443;-78
2022/12/25 10:59:45;;;;;;;71.38;37.72;;;;;;;7.41;100.00;101227.66;10556821;28;20048;-77
2022/12/25 11:04:46;;;;;;;82.57;39.10;;;;;;;7.58;100.00;101243.53;10521812;28;20549;-79
2022/12/25 11:09:59;;;;;;;76.63;38.90;;;;;;;7.62;100.00;101237.34;10523884;28;20036;-77
2022/12/25 11:15:02;;;;;;;72.55;37.13;;;;;;;7.76;100.00;101235.31;10542782;28;20043;-76
2022/12/25 11:20:02;;;;;;;75.32;36.85;;;;;;;7.82;100.00;101228.94;10540159;28;20043;-77
2022/12/25 11:25:13;;;;;;;71.60;37.85;;;;;;;7.89;100.00;101212.41;10541473;28;20051;-78
2022/12/25 11:30:14;;;;;;;58.17;36.03;;;;;;;7.64;100.00;101141.22;10553636;27;20028;-77
2022/12/25 11:35:16;;;;;;;60.90;37.40;;;;;;;7.93;100.00;101158.78;10571367;28;20036;-77
2022/12/25 11:40:19;;;;;;;66.15;38.50;;;;;;;8.15;100.00;101189.31;10549693;28;20523;-78
2022/12/25 11:45:25;;;;;;;71.57;39.65;;;;;;;8.22;100.00;101168.13;10560600;28;20044;-79
2022/12/25 11:50:45;;;;;;;61.35;36.70;;;;;;;8.14;100.00;101148.41;10533057;28;20917;-79
2022/12/25 11:55:53;;;;;;;72.95;39.75;;;;;;;8.22;100.00;101135.22;10544930;27;20040;-78
2022/12/25 12:00:55;;;;;;;63.72;37.72;;;;;;;8.31;100.00;101129.41;10562463;27;20031;-78
2022/12/25 12:06:01;;;;;;;66.72;37.95;;;;;;;8.33;100.00;101119.03;10584315;27;20042;-78
2022/12/25 12:11:27;;;;;;;59.35;35.58;;;;;;;8.26;100.00;101119.97;10583276;28;20091;-77
2022/12/25 12:16:28;;;;;;;65.95;36.08;;;;;;;8.19;100.00;101108.25;10543146;27;20036;-77
2022/12/25 12:21:29;;;;;;;64.10;34.90;;;;;;;8.18;100.00;101109.31;10550847;27;20441;-78
2022/12/25 12:26:31;;;;;;;58.90;36.75;;;;;;;8.15;100.00;101101.56;10549360;27;20077;-74
2022/12/25 12:31:42;;;;;;;65.63;36.38;;;;;;;8.07;100.00;101090.94;10549634;27;20054;-78
2022/12/25 12:36:43;;;;;;;62.60;35.53;;;;;;;8.08;100.00;101101.66;10557414;27;20035;-78
2022/12/25 12:41:47;;;;;;;60.58;35.65;;;;;;;8.01;100.00;101086.38;10556891;27;20051;-77
2022/12/25 12:46:55;;;;;;;70.70;37.10;;;;;;;7.97;100.00;101087.91;10566851;27;20077;-81
2022/12/25 12:52:23;;;;;;;58.03;35.50;;;;;;;8.00;100.00;101079.19;10582181;27;20035;-74
2022/12/25 12:57:25;;;;;;;58.67;35.47;;;;;;;7.99;100.00;101078.38;10562741;27;20115;-82
2022/12/25 13:02:42;;;;;;;57.40;33.47;;;;;;;7.98;100.00;101071.22;10548415;27;20040;-83
2022/12/25 13:07:53;;;;;;;65.00;33.97;;;;;;;8.01;100.00;101069.91;10564486;27;20055;-82
2022/12/25 13:12:57;;;;;;;45.47;31.42;;;;;;;8.01;100.00;101073.50;10568053;27;20039;-83
2022/12/25 13:18:02;;;;;;;50.83;31.63;;;;;;;8.02;100.00;101068.84;10532198;28;20062;-84
2022/12/25 13:23:33;;;;;;;53.30;30.73;;;;;;;8.00;100.00;101054.53;10522566;28;20264;-84
2022/12/25 13:28:34;;;;;;;59.50;30.58;;;;;;;7.99;100.00;101058.34;10544458;28;20090;-76
2022/12/25 13:33:35;;;;;;;49.60;29.45;;;;;;;7.98;100.00;101045.69;10542732;27;20036;-83
2022/12/25 13:38:35;;;;;;;55.95;30.98;;;;;;;7.96;100.00;101043.19;10508141;27;20042;-83
2022/12/25 13:43:40;;;;;;;45.75;28.85;;;;;;;7.97;100.00;101041.28;10508731;27;20171;-84
2022/12/25 13:48:43;;;;;;;42.60;28.75;;;;;;;7.95;100.00;101033.28;10506750;28;20039;-82
2022/12/25 13:53:44;;;;;;;43.55;28.15;;;;;;;7.93;100.00;101015.41;10506842;27;20400;-82
2022/12/25 13:58:44;;;;;;;40.13;27.67;;;;;;;7.87;100.00;101007.06;10523485;28;20029;-82
2022/12/25 14:03:45;;;;;;;48.97;28.50;;;;;;;7.85;100.00;101002.88;10525536;28;20040;-78
2022/12/25 14:08:46;;;;;;;42.10;27.30;;;;;;;7.76;100.00;101002.34;10542137;28;20027;-83
2022/12/25 14:13:48;;;;;;;44.03;26.95;;;;;;;7.78;100.00;100986.53;10540327;28;20032;-84
2022/12/25 14:18:57;;;;;;;40.78;27.15;;;;;;;7.75;100.00;100981.53;10507181;28;20483;-86
2022/12/25 14:23:57;;;;;;;52.95;28.50;;;;;;;7.73;100.00;100980.91;10528588;28;20326;-85
2022/12/25 14:29:03;;;;;;;42.97;27.00;;;;;;;7.67;100.00;100976.38;10551723;28;20095;-85
2022/12/25 14:34:09;;;;;;;43.20;27.70;;;;;;;7.62;100.00;100973.47;10563752;28;20036;-85
2022/12/25 14:39:39;;;;;;;41.97;26.50;;;;;;;7.63;100.00;100967.75;10544537;28;20040;-85
2022/12/25 14:44:39;;;;;;;51.53;28.85;;;;;;;7.61;100.00;100963.59;10547127;28;20032;-86
2022/12/25 14:49:40;;;;;;;50.17;27.90;;;;;;;7.61;100.00;100958.94;10555939;28;20037;-83
2022/12/25 14:55:03;;;;;;;50.95;29.10;;;;;;;7.60;100.00;100970.94;10523226;28;20050;-83
2022/12/25 15:00:19;;;;;;;50.78;28.90;;;;;;;7.58;100.00;100969.53;10556115;28;20037;-83
2022/12/25 15:05:24;;;;;;;49.88;30.05;;;;;;;7.48;100.00;100949.00;10554992;28;20059;-83
2022/12/25 15:10:25;;;;;;;54.00;32.08;;;;;;;7.48;100.00;100943.53;10527253;28;20036;-84
2022/12/25 15:15:26;;;;;;;60.58;31.42;;;;;;;7.50;100.00;100940.53;10547011;28;20059;-83
2022/12/25 15:20:30;;;;;;;68.10;32.03;;;;;;;7.45;100.00;100943.97;10539934;28;20091;-83
2022/12/25 15:25:31;;;;;;;58.35;33.45;;;;;;;7.45;100.00;100945.91;10525598;28;20055;-83
2022/12/25 15:30:34;;;;;;;60.58;32.85;;;;;;;7.46;100.00;100940.19;10527831;27;20043;-83
2022/12/25 15:35:37;;;;;;;62.88;32.33;;;;;;;7.45;100.00;100943.16;10551873;27;20036;-83
2022/12/25 15:40:38;;;;;;;62.95;33.20;;;;;;;7.43;100.00;100946.13;10582135;27;20039;-83
2022/12/25 15:45:38;;;;;;;71.95;36.70;;;;;;;7.47;100.00;100958.28;10564423;27;20039;-83
2022/12/25 15:50:38;;;;;;;64.80;36.75;;;;;;;7.50;100.00;100950.66;10586242;27;20097;-85
2022/12/25 15:55:39;;;;;;;74.97;37.58;;;;;;;7.45;100.00;100952.19;10580423;27;20389;-85
2022/12/25 16:00:39;;;;;;;93.28;41.17;;;;;;;7.53;100.00;100963.91;10562125;27;20391;-85
2022/12/25 16:05:40;;;;;;;77.72;42.17;;;;;;;7.56;100.00;100955.22;10581984;28;20507;-86
2022/12/25 16:10:40;;;;;;;88.82;46.63;;;;;;;7.56;100.00;100960.69;10550335;27;20407;-84
2022/12/25 16:15:41;;;;;;;99.63;45.40;;;;;;;7.51;100.00;100947.72;10580416;27;20162;-83
2022/12/25 16:20:42;;;;;;;94.68;47.70;;;;;;;7.58;100.00;100964.03;10564932;27;20039;-85
2022/12/25 16:25:42;;;;;;;112.70;50.25;;;;;;;7.60;100.00;100959.16;10540584;27;20060;-88
2022/12/25 16:30:43;;;;;;;114.93;48.42;;;;;;;7.59;100.00;100966.56;10556263;28;20124;-89
2022/12/25 16:35:44;;;;;;;102.45;47.38;;;;;;;7.60;100.00;100970.13;10580173;27;20728;-86
2022/12/25 16:40:46;;;;;;;118.72;50.33;;;;;;;7.61;100.00;100969.06;10572909;27;20036;-87
2022/12/25 16:45:46;;;;;;;122.55;47.45;;;;;;;7.61;100.00;100969.06;10515070;27;20066;-88
2022/12/25 16:50:47;;;;;;;107.50;49.67;;;;;;;7.61;100.00;100969.06;10547651;27;20036;-86
2022/12/25 16:55:47;;;;;;;106.13;50.25;;;;;;;7.63;100.00;100955.97;10534334;27;20039;-88
2022/12/25 17:00:48;;;;;;;128.73;48.90;;;;;;;7.63;100.00;100955.97;10577853;28;20040;-88
2022/12/25 17:05:48;;;;;;;124.15;48.17;;;;;;;7.61;100.00;100952.63;10563577;28;20054;-86
2022/12/25 17:10:49;;;;;;;159.57;50.28;;;;;;;7.54;100.00;100933.53;10577363;27;20065;-87
2022/12/25 17:15:49;;;;;;;142.95;47.22;;;;;;;7.58;100.00;100942.13;10538751;28;20048;-73
2022/12/25 17:20:50;;;;;;;130.50;46.28;;;;;;;7.56;100.00;100934.13;10560334;28;25278;-86
2022/12/25 17:25:51;;;;;;;279.77;47.13;;;;;;;7.56;100.00;100922.34;10565073;28;20470;-84
2022/12/25 17:30:51;;;;;;;170.27;45.53;;;;;;;7.56;100.00;100930.56;10525120;27;20032;-85
2022/12/25 17:35:52;;;;;;;115.95;44.80;;;;;;;7.55;100.00;100928.91;10559582;27;20043;-81
2022/12/25 17:40:56;;;;;;;118.93;44.95;;;;;;;7.53;100.00;100942.00;10561648;27;20399;-85
2022/12/25 17:46:02;;;;;;;293.73;49.92;;;;;;;7.45;100.00;100893.84;10555203;27;20051;-85
2022/12/25 17:51:08;;;;;;;320.30;46.95;;;;;;;7.46;100.00;100885.41;10578948;27;20122;-87
2022/12/25 17:56:09;;;;;;;237.77;45.60;;;;;;;7.51;100.00;100897.56;10534611;28;20042;-85
2022/12/25 18:01:14;;;;;;;149.40;47.80;;;;;;;7.49;100.00;100906.00;10583492;27;20032;-86
2022/12/25 18:06:16;;;;;;;123.57;46.45;;;;;;;7.42;100.00;100889.69;10564490;27;20166;-86
2022/12/25 18:11:18;;;;;;;190.35;49.42;;;;;;;7.50;100.00;100885.75;10560781;28;20051;-86
2022/12/25 18:16:21;;;;;;;170.18;48.55;;;;;;;7.52;100.00;100888.25;10582666;27;20050;-87
2022/12/25 18:21:21;;;;;;;225.15;50.38;;;;;;;7.50;100.00;100882.19;10582147;27;20080;-88
2022/12/25 18:26:22;;;;;;;155.23;51.65;;;;;;;7.51;100.00;100881.13;10546697;28;20085;-86
2022/12/25 18:31:24;;;;;;;165.68;51.67;;;;;;;7.41;100.00;100871.56;10556364;28;20043;-87
2022/12/25 18:36:25;;;;;;;159.52;52.08;;;;;;;7.49;100.00;100900.53;10573397;28;20058;-88
2022/12/25 18:41:27;;;;;;;143.50;47.17;;;;;;;7.46;100.00;100899.09;10579309;27;20061;-88
2022/12/25 18:46:27;;;;;;;160.43;51.78;;;;;;;7.48;100.00;100902.44;10579866;28;20047;-88
2022/12/25 18:51:28;;;;;;;211.20;49.72;;;;;;;7.53;100.00;100896.25;10545993;28;20044;-89
2022/12/25 18:56:28;;;;;;;202.27;52.60;;;;;;;7.47;100.00;100869.78;10545925;28;20039;-88
2022/12/25 19:01:29;;;;;;;405.33;51.35;;;;;;;7.53;100.00;100873.50;10535392;27;20038;-88
2022/12/25 19:06:31;;;;;;;423.30;53.97;;;;;;;7.50;100.00;100863.84;10590374;27;20531;-88
2022/12/25 19:11:32;;;;;;;159.40;49.42;;;;;;;7.46;100.00;100868.97;10587385;27;20032;-88
2022/12/25 19:16:34;;;;;;;224.73;53.97;;;;;;;7.42;100.00;100862.28;10589861;27;20039;-89
2022/12/25 19:21:34;;;;;;;281.88;54.25;;;;;;;7.47;100.00;100869.78;10554235;27;20059;-89
2022/12/25 19:26:35;;;;;;;283.95;54.03;;;;;;;7.46;100.00;100862.63;10570356;27;20081;-88
2022/12/25 19:31:36;;;;;;;257.40;53.05;;;;;;;7.41;100.00;100857.88;10552868;27;20031;-87
2022/12/25 19:36:37;;;;;;;230.52;51.10;;;;;;;7.44;100.00;100860.16;10570362;28;20050;-87
2022/12/25 19:41:38;;;;;;;201.57;53.40;;;;;;;7.34;100.00;100848.94;10569364;28;20081;-85
2022/12/25 19:46:39;;;;;;;194.60;52.55;;;;;;;7.44;100.00;100868.38;10569702;27;20044;-88
2022/12/25 19:51:41;;;;;;;207.20;49.80;;;;;;;7.36;100.00;100851.41;10586015;27;20371;-88
2022/12/25 19:56:42;;;;;;;314.75;60.75;;;;;;;7.43;100.00;100866.69;10552244;27;20415;-87
2022/12/25 20:01:42;;;;;;;286.00;53.88;;;;;;;7.43;100.00;100863.94;10568461;27;20047;-87
2022/12/25 20:06:43;;;;;;;381.00;55.28;;;;;;;7.43;100.00;100880.38;10549420;27;20427;-88
2022/12/25 20:11:43;;;;;;;307.05;60.80;;;;;;;7.43;100.00;100890.50;10549483;28;20031;-88
2022/12/25 20:16:44;;;;;;;514.45;89.45;;;;;;;7.44;100.00;100892.16;10566008;28;20103;-88
2022/12/25 20:21:44;;;;;;;659.15;111.32;;;;;;;7.44;100.00;100887.53;10576978;28;20042;-88
2022/12/25 20:26:45;;;;;;;586.80;93.85;;;;;;;7.44;100.00;100881.22;10568796;28;20050;-87
2022/12/25 20:31:45;;;;;;;519.15;73.88;;;;;;;7.43;100.00;100874.91;10548412;28;20032;-85
2022/12/25 20:36:48;;;;;;;501.35;69.82;;;;;;;7.43;100.00;100877.63;10584538;28;20040;-79
2022/12/25 20:41:48;;;;;;;428.40;62.83;;;;;;;7.44;100.00;100872.97;10581738;28;20035;-85
2022/12/25 20:46:49;;;;;;;456.65;58.70;;;;;;;7.45;100.00;100883.72;10599269;28;20036;-87
2022/12/25 20:51:49;;;;;;;413.98;62.42;;;;;;;7.43;100.00;100869.41;10564642;28;20028;-86
2022/12/25 20:56:50;;;;;;;420.10;59.33;;;;;;;7.42;100.00;100870.50;10583691;28;20488;-87
2022/12/25 21:01:52;;;;;;;506.00;73.03;;;;;;;7.43;100.00;100880.38;10547090;28;20507;-87
2022/12/25 21:06:53;;;;;;;457.30;62.00;;;;;;;7.45;100.00;100889.19;10548117;28;20046;-87
2022/12/25 21:11:53;;;;;;;346.70;58.80;;;;;;;7.47;100.00;100875.28;10526779;27;1104155;-86
2022/12/25 21:16:54;;;;;;;495.65;63.22;;;;;;;7.47;100.00;100878.00;10577354;28;20424;-88
2022/12/25 21:21:54;;;;;;;622.00;75.35;;;;;;;7.43;100.00;100868.59;10582541;27;20035;-88
2022/12/25 21:26:55;;;;;;;623.85;75.25;;;;;;;7.39;100.00;100870.97;10563733;27;20044;-86
2022/12/25 21:37:14;;;;;;;527.53;78.43;;;;;;;7.43;100.00;100874.06;10582345;27;20065;-86
2022/12/25 21:42:15;;;;;;;523.42;72.72;;;;;;;7.45;100.00;100870.03;10542973;28;20047;-87
2022/12/25 21:47:16;;;;;;;463.65;69.68;;;;;;;7.46;100.00;100879.06;10563874;27;20047;-87
2022/12/25 21:52:16;;;;;;;503.38;74.65;;;;;;;7.39;100.00;100873.69;10580688;27;20048;-86
2022/12/25 21:57:17;;;;;;;546.15;72.20;;;;;;;7.34;100.00;100867.22;10581353;27;20081;-87
2022/12/25 22:02:17;;;;;;;408.17;70.22;;;;;;;7.42;100.00;100880.59;10563397;28;20066;-86
2022/12/25 22:07:18;;;;;;;470.80;68.53;;;;;;;7.43;100.00;100880.38;10543174;27;20447;-87
2022/12/25 22:22:58;;;;;;;239.70;59.00;;;;;;;7.40;100.00;100890.97;10568177;27;20061;-87
2022/12/25 22:27:58;;;;;;;314.77;61.17;;;;;;;7.42;100.00;100889.69;10579010;27;20081;-87
2022/12/25 22:32:59;;;;;;;407.42;66.78;;;;;;;7.42;100.00;100899.78;10578105;28;20105;-87
2022/12/25 22:37:59;;;;;;;310.63;59.72;;;;;;;7.41;100.00;100904.44;10559334;27;20039;-87
2022/12/25 22:43:00;;;;;;;395.90;67.05;;;;;;;7.41;100.00;100909.91;10576691;27;20059;-87
2022/12/25 22:48:00;;;;;;;368.95;58.75;;;;;;;7.40;100.00;100900.03;10577734;28;20047;-88
2022/12/25 22:53:01;;;;;;;432.95;56.50;;;;;;;7.43;100.00;100891.34;10558446;28;20047;-86
2022/12/25 22:58:01;;;;;;;334.05;56.20;;;;;;;7.40;100.00;100891.81;10577569;28;20032;-86
2022/12/25 23:03:02;;;;;;;397.48;62.08;;;;;;;7.41;100.00;100890.72;10571792;28;20055;-87
2022/12/25 23:08:02;;;;;;;433.48;60.15;;;;;;;7.41;100.00;100893.47;10555621;27;20119;-88
2022/12/25 23:34:20;;;;;;;407.00;63.30;;;;;;;7.35;100.00;100888.91;10573477;28;20302;-87
2022/12/25 23:39:20;;;;;;;360.17;56.95;;;;;;;7.32;100.00;100883.94;10577192;28;20044;-87
2022/12/25 23:44:21;;;;;;;389.30;62.45;;;;;;;7.30;100.00;100893.41;10549522;28;20071;-88
2022/12/25 23:49:22;;;;;;;270.85;49.88;;;;;;;7.25;100.00;100881.25;10582929;27;20395;-87
2022/12/25 23:54:27;;;;;;;372.15;57.92;;;;;;;7.30;100.00;100902.50;10564320;27;20606;-87
2022/12/25 23:59:29;;;;;;;254.27;49.30;;;;;;;7.33;100.00;100880.09;10553872;27;20032;-87
